createdAt,value
2023-02-25T00:01:57.781Z,8.00
2023-02-25T00:04:32.637Z,8.10
2023-02-25T00:07:00.895Z,8.10
2023-02-25T00:09:29.087Z,8.10
2023-02-25T00:11:57.441Z,8.10
2023-02-25T00:14:25.614Z,8.10
2023-02-25T00:16:56.096Z,8.10
2023-02-25T00:19:24.537Z,8.10
2023-02-25T00:21:54.118Z,8.20
2023-02-25T00:24:22.409Z,8.10
2023-02-25T00:26:50.638Z,8.20
2023-02-25T00:29:18.793Z,8.20
2023-02-25T00:31:47.255Z,8.20
2023-02-25T00:34:15.548Z,8.20
2023-02-25T00:36:43.777Z,8.20
2023-02-25T00:39:13.377Z,8.20
2023-02-25T00:41:41.546Z,8.20
2023-02-25T00:44:09.946Z,8.20
2023-02-25T00:46:38.174Z,8.20
2023-02-25T00:49:06.370Z,8.20
2023-02-25T00:51:34.913Z,8.20
2023-02-25T00:54:03.083Z,8.20
2023-02-25T00:56:32.673Z,8.20
2023-02-25T00:59:01.580Z,8.20
2023-02-25T01:01:33.392Z,8.20
2023-02-25T01:04:01.863Z,8.20
2023-02-25T01:06:35.142Z,8.30
2023-02-25T01:09:05.389Z,8.20
2023-02-25T01:11:37.326Z,8.30
2023-02-25T01:14:06.863Z,8.20
2023-02-25T01:16:36.822Z,8.20
2023-02-25T01:19:10.239Z,8.20
2023-02-25T01:21:39.865Z,8.20
2023-02-25T01:24:12.167Z,8.20
2023-02-25T01:26:43.286Z,8.20
2023-02-25T01:29:13.018Z,8.10
2023-02-25T01:31:42.009Z,8.10
2023-02-25T01:34:13.817Z,8.10
2023-02-25T01:36:43.165Z,8.10
2023-02-25T01:39:11.929Z,8.00
2023-02-25T01:41:41.779Z,8.00
2023-02-25T01:44:12.990Z,8.10
2023-02-25T01:46:42.120Z,8.00
2023-02-25T01:49:14.523Z,8.10
2023-02-25T01:51:44.816Z,8.10
2023-02-25T01:54:15.653Z,8.10
2023-02-25T01:56:49.851Z,8.10
2023-02-25T01:59:20.869Z,8.10
2023-02-25T02:01:49.559Z,8.10
2023-02-25T02:04:19.627Z,8.10
2023-02-25T02:06:49.980Z,8.10
2023-02-25T02:09:21.992Z,8.00
2023-02-25T02:11:51.420Z,8.00
2023-02-25T02:14:24.523Z,8.00
2023-02-25T02:17:22.611Z,8.00
2023-02-25T02:20:09.983Z,8.10
2023-02-25T02:22:50.161Z,8.00
2023-02-25T02:25:52.779Z,8.00
2023-02-25T02:28:55.313Z,8.00
2023-02-25T02:32:02.435Z,8.00
2023-02-25T02:34:42.844Z,8.00
2023-02-25T02:37:25.887Z,7.90
2023-02-25T02:40:06.840Z,7.90
2023-02-25T02:42:41.855Z,7.90
2023-02-25T02:45:17.756Z,7.90
2023-02-25T02:47:51.005Z,7.90
2023-02-25T02:50:28.236Z,7.90
2023-02-25T02:53:00.818Z,7.90
2023-02-25T02:55:34.338Z,7.90
2023-02-25T02:58:08.112Z,7.80
2023-02-25T03:00:40.762Z,7.80
2023-02-25T03:03:15.587Z,7.80
2023-02-25T03:05:47.471Z,7.80
2023-02-25T03:08:20.444Z,7.80
2023-02-25T03:10:48.685Z,7.80
2023-02-25T03:13:17.527Z,7.80
2023-02-25T03:15:47.400Z,7.80
2023-02-25T03:18:26.550Z,7.70
2023-02-25T03:20:58.124Z,7.70
2023-02-25T03:23:29.672Z,7.70
2023-02-25T03:26:08.702Z,7.70
2023-02-25T03:28:36.902Z,7.70
2023-02-25T03:31:10.597Z,7.70
2023-02-25T03:33:47.932Z,7.70
2023-02-25T03:36:20.920Z,7.70
2023-02-25T03:38:53.174Z,7.70
2023-02-25T03:41:24.276Z,7.70
2023-02-25T03:43:56.178Z,7.70
2023-02-25T03:46:25.244Z,7.70
2023-02-25T03:48:55.899Z,7.60
2023-02-25T03:51:31.342Z,7.60
2023-02-25T03:53:59.583Z,7.60
2023-02-25T03:56:27.910Z,7.60
2023-02-25T03:58:56.047Z,7.60
2023-02-25T04:01:28.712Z,7.60
2023-02-25T04:03:58.218Z,7.50
2023-02-25T04:06:26.671Z,7.50
2023-02-25T04:08:55.001Z,7.50
2023-02-25T04:11:23.236Z,7.50
2023-02-25T04:13:51.495Z,7.50
2023-02-25T04:16:19.883Z,7.50
2023-02-25T04:18:48.044Z,7.50
2023-02-25T04:21:29.889Z,7.50
2023-02-25T04:23:58.120Z,7.50
2023-02-25T04:26:26.444Z,7.50
2023-02-25T04:28:54.948Z,7.50
2023-02-25T04:31:23.270Z,7.50
2023-02-25T04:33:51.778Z,7.50
2023-02-25T04:36:30.314Z,7.50
2023-02-25T04:39:01.743Z,7.60
2023-02-25T04:41:32.314Z,7.60
2023-02-25T04:44:00.949Z,7.60
2023-02-25T04:46:29.121Z,7.60
2023-02-25T04:48:57.633Z,7.60
2023-02-25T04:51:27.242Z,7.60
2023-02-25T04:53:55.487Z,7.50
2023-02-25T04:56:24.287Z,7.50
2023-02-25T04:58:53.999Z,7.50
2023-02-25T05:01:22.269Z,7.50
2023-02-25T05:03:56.738Z,7.50
2023-02-25T05:06:25.323Z,7.50
2023-02-25T05:08:55.101Z,7.40
2023-02-25T05:11:23.405Z,7.30
2023-02-25T05:13:51.712Z,7.40
2023-02-25T05:16:21.038Z,7.40
2023-02-25T05:18:49.540Z,7.30
2023-02-25T05:21:20.499Z,7.30
2023-02-25T05:23:51.030Z,7.30
2023-02-25T05:26:23.027Z,7.40
2023-02-25T05:28:51.783Z,7.30
2023-02-25T05:31:20.491Z,7.30
2023-02-25T05:33:48.809Z,7.30
2023-02-25T05:36:19.881Z,7.30
2023-02-25T05:38:49.445Z,7.30
2023-02-25T05:41:20.229Z,7.30
2023-02-25T05:43:49.766Z,7.30
2023-02-25T05:46:18.465Z,7.30
2023-02-25T05:48:47.129Z,7.30
2023-02-25T05:51:17.683Z,7.20
2023-02-25T05:53:47.903Z,7.20
2023-02-25T05:56:18.983Z,7.20
2023-02-25T05:58:48.371Z,7.20
2023-02-25T06:01:19.785Z,7.20
2023-02-25T06:03:49.819Z,7.20
2023-02-25T06:06:23.299Z,7.20
2023-02-25T06:08:52.899Z,7.10
2023-02-25T06:11:23.198Z,7.20
2023-02-25T06:13:53.094Z,7.20
2023-02-25T06:16:25.767Z,7.20
2023-02-25T06:18:54.333Z,7.20
2023-02-25T06:21:22.545Z,7.20
2023-02-25T06:23:50.867Z,7.20
2023-02-25T06:26:21.035Z,7.20
2023-02-25T06:28:49.325Z,7.20
2023-02-25T06:31:19.575Z,7.20
2023-02-25T06:33:50.746Z,7.30
2023-02-25T06:36:21.703Z,7.30
2023-02-25T06:38:50.436Z,7.40
2023-02-25T06:41:21.313Z,7.40
2023-02-25T06:43:52.292Z,7.40
2023-02-25T06:46:23.288Z,7.40
2023-02-25T06:48:53.277Z,7.40
2023-02-25T06:51:21.430Z,7.40
2023-02-25T06:53:50.895Z,7.30
2023-02-25T06:56:21.875Z,7.30
2023-02-25T06:58:52.520Z,7.30
2023-02-25T07:01:20.989Z,7.30
2023-02-25T07:03:49.655Z,7.30
2023-02-25T07:06:19.842Z,7.30
2023-02-25T07:08:48.064Z,7.30
2023-02-25T07:11:31.703Z,7.30
2023-02-25T07:13:59.872Z,7.30
2023-02-25T07:16:29.954Z,7.30
2023-02-25T07:19:01.764Z,7.20
2023-02-25T07:21:31.817Z,7.30
2023-02-25T07:24:00.025Z,7.30
2023-02-25T07:26:29.330Z,7.30
2023-02-25T07:28:58.453Z,7.30
2023-02-25T07:31:28.750Z,7.30
2023-02-25T07:33:57.665Z,7.30
2023-02-25T07:36:28.556Z,7.30
2023-02-25T07:38:59.084Z,7.30
2023-02-25T07:41:27.882Z,7.40
2023-02-25T07:43:56.230Z,7.40
2023-02-25T07:46:24.409Z,7.40
2023-02-25T07:48:52.664Z,7.50
2023-02-25T07:51:23.047Z,7.50
2023-02-25T07:53:52.471Z,7.50
2023-02-25T07:56:24.016Z,7.50
2023-02-25T07:58:52.273Z,7.50
2023-02-25T08:01:24.561Z,7.50
2023-02-25T08:03:54.174Z,7.50
2023-02-25T08:06:22.674Z,7.50
2023-02-25T08:08:52.229Z,7.50
2023-02-25T08:11:22.981Z,7.50
2023-02-25T08:13:51.798Z,7.50
2023-02-25T08:16:21.953Z,7.50
2023-02-25T08:18:50.188Z,7.60
2023-02-25T08:21:21.654Z,7.60
2023-02-25T08:23:50.289Z,7.70
2023-02-25T08:26:19.326Z,7.70
2023-02-25T08:28:49.345Z,7.70
2023-02-25T08:31:20.117Z,7.80
2023-02-25T08:33:52.786Z,7.80
2023-02-25T08:36:23.793Z,7.80
2023-02-25T08:38:52.821Z,7.90
2023-02-25T08:41:22.581Z,7.90
2023-02-25T08:43:54.655Z,7.90
2023-02-25T08:46:23.014Z,7.90
2023-02-25T08:48:52.456Z,7.90
2023-02-25T08:51:22.099Z,7.90
2023-02-25T08:53:50.691Z,7.90
2023-02-25T08:56:18.884Z,7.90
2023-02-25T08:58:47.070Z,8.00
2023-02-25T09:01:18.467Z,8.00
2023-02-25T09:03:52.305Z,8.00
2023-02-25T09:06:21.959Z,8.10
2023-02-25T09:08:50.513Z,8.10
2023-02-25T09:11:19.330Z,8.10
2023-02-25T09:13:47.489Z,8.10
2023-02-25T09:16:17.874Z,8.10
2023-02-25T09:18:46.510Z,8.10
2023-02-25T09:21:15.620Z,8.10
2023-02-25T09:23:43.981Z,8.10
2023-02-25T09:26:12.504Z,8.10
2023-02-25T09:28:40.820Z,8.10
2023-02-25T09:31:09.096Z,8.10
2023-02-25T09:33:39.511Z,8.10
2023-02-25T09:36:08.983Z,8.20
2023-02-25T09:38:37.655Z,8.20
2023-02-25T09:41:14.540Z,8.30
2023-02-25T09:43:43.715Z,8.30
2023-02-25T09:46:14.699Z,8.30
2023-02-25T09:48:51.941Z,8.20
2023-02-25T09:51:23.088Z,8.20
2023-02-25T09:53:58.351Z,8.20
2023-02-25T09:56:28.748Z,8.20
2023-02-25T09:58:59.882Z,8.20
2023-02-25T10:01:35.546Z,8.20
2023-02-25T10:04:10.609Z,8.20
2023-02-25T10:06:44.088Z,8.10
2023-02-25T10:09:23.044Z,8.10
2023-02-25T10:11:54.721Z,8.10
2023-02-25T10:14:50.910Z,8.10
2023-02-25T10:17:28.146Z,8.00
2023-02-25T10:20:24.966Z,8.00
2023-02-25T10:23:02.092Z,8.00
2023-02-25T10:25:33.086Z,7.90
2023-02-25T10:28:02.988Z,7.90
2023-02-25T10:30:36.083Z,8.00
2023-02-25T10:33:07.702Z,8.00
2023-02-25T10:35:40.468Z,8.00
2023-02-25T10:38:10.367Z,8.10
2023-02-25T10:40:38.927Z,8.20
2023-02-25T10:43:20.435Z,8.20
2023-02-25T10:45:55.465Z,8.30
2023-02-25T10:48:25.868Z,8.30
2023-02-25T10:51:09.880Z,8.40
2023-02-25T10:53:38.038Z,8.40
2023-02-25T10:56:06.996Z,8.50
2023-02-25T10:58:44.605Z,8.50
2023-02-25T11:01:16.648Z,8.60
2023-02-25T11:03:54.810Z,8.70
2023-02-25T11:06:29.212Z,8.80
2023-02-25T11:08:59.654Z,8.90
2023-02-25T11:11:31.121Z,9.00
2023-02-25T11:14:06.571Z,9.10
2023-02-25T11:16:38.184Z,9.10
2023-02-25T11:19:16.109Z,9.20
2023-02-25T11:21:46.700Z,9.20
2023-02-25T11:24:17.491Z,9.30
2023-02-25T11:26:47.343Z,9.20
2023-02-25T11:29:18.916Z,9.30
2023-02-25T11:31:50.848Z,9.20
2023-02-25T11:34:23.677Z,9.20
2023-02-25T11:36:54.483Z,9.20
2023-02-25T11:39:24.531Z,9.20
2023-02-25T11:41:54.055Z,9.20
2023-02-25T11:44:26.866Z,9.10
2023-02-25T11:47:23.071Z,9.10
2023-02-25T11:50:17.124Z,9.10
2023-02-25T11:52:50.424Z,9.10
2023-02-25T11:55:26.251Z,9.10
2023-02-25T11:58:06.187Z,9.10
2023-02-25T12:00:46.163Z,9.10
2023-02-25T12:03:40.342Z,9.20
2023-02-25T12:06:24.444Z,9.20
2023-02-25T12:09:19.393Z,9.30
2023-02-25T12:12:17.567Z,9.40
2023-02-25T12:15:23.646Z,9.50
2023-02-25T12:18:27.626Z,9.60
2023-02-25T12:21:21.778Z,9.60
2023-02-25T12:24:31.566Z,9.70
2023-02-25T12:27:47.188Z,9.70
2023-02-25T12:30:56.914Z,9.80
2023-02-25T12:33:48.312Z,9.80
2023-02-25T12:36:45.653Z,9.80
2023-02-25T12:39:39.026Z,9.70
2023-02-25T12:42:24.170Z,9.50
2023-02-25T12:45:16.426Z,9.20
2023-02-25T12:47:52.796Z,8.90
2023-02-25T12:50:43.751Z,8.70
2023-02-25T12:53:25.412Z,8.40
2023-02-25T12:56:04.628Z,8.20
2023-02-25T12:58:44.246Z,8.00
2023-02-25T13:01:38.967Z,7.80
2023-02-25T13:04:40.034Z,7.70
2023-02-25T13:07:39.898Z,7.50
2023-02-25T13:10:41.106Z,7.40
2023-02-25T13:13:50.742Z,7.30
2023-02-25T13:16:30.984Z,7.30
2023-02-25T13:19:20.802Z,7.20
2023-02-25T13:21:59.649Z,7.20
2023-02-25T13:24:39.218Z,7.20
2023-02-25T13:27:24.270Z,7.20
2023-02-25T13:30:20.402Z,7.20
2023-02-25T13:32:58.403Z,7.30
2023-02-25T13:35:40.047Z,7.30
2023-02-25T13:38:24.147Z,7.40
2023-02-25T13:41:03.928Z,7.40
2023-02-25T13:43:51.806Z,7.40
2023-02-25T13:46:37.838Z,7.50
2023-02-25T13:49:42.007Z,7.60
2023-02-25T13:52:30.287Z,7.60
2023-02-25T13:55:35.853Z,7.70
2023-02-25T13:58:25.299Z,7.70
2023-02-25T14:01:27.744Z,7.70
2023-02-25T14:04:33.309Z,7.70
2023-02-25T14:07:30.308Z,7.70
2023-02-25T14:10:13.722Z,7.70
2023-02-25T14:13:02.036Z,7.70
2023-02-25T14:15:44.501Z,7.70
2023-02-25T14:18:44.347Z,7.70
2023-02-25T14:21:37.452Z,7.80
2023-02-25T14:24:10.268Z,7.90
2023-02-25T14:26:46.967Z,7.90
2023-02-25T14:29:26.657Z,7.90
2023-02-25T14:32:23.057Z,7.90
2023-02-25T14:35:14.002Z,7.90
2023-02-25T14:37:55.621Z,7.90
2023-02-25T14:40:35.194Z,7.90
2023-02-25T14:43:15.576Z,7.90
2023-02-25T14:45:47.299Z,7.90
2023-02-25T14:48:21.334Z,7.90
2023-02-25T14:50:55.503Z,7.90
2023-02-25T14:54:04.949Z,7.90
2023-02-25T14:56:57.840Z,8.00
2023-02-25T14:59:59.532Z,8.00
2023-02-25T15:02:54.109Z,8.00
2023-02-25T15:05:50.273Z,8.00
2023-02-25T15:08:46.959Z,8.00
2023-02-25T15:11:50.207Z,8.00
2023-02-25T15:15:03.423Z,8.00
2023-02-25T15:18:16.711Z,8.00
2023-02-25T15:20:46.003Z,8.00
2023-02-25T15:23:16.504Z,8.00
2023-02-25T15:25:50.710Z,8.00
2023-02-25T15:28:39.794Z,8.00
2023-02-25T15:31:35.044Z,8.00
2023-02-25T15:34:39.695Z,8.00
2023-02-25T15:37:30.167Z,8.00
2023-02-25T15:40:00.543Z,8.00
2023-02-25T15:42:46.382Z,8.00
2023-02-25T15:45:49.809Z,7.90
2023-02-25T15:48:35.914Z,7.90
2023-02-25T15:51:06.404Z,7.90
2023-02-25T15:53:49.086Z,7.90
2023-02-25T15:56:49.237Z,7.90
2023-02-25T15:59:43.399Z,7.90
2023-02-25T16:02:46.338Z,7.90
2023-02-25T16:05:23.959Z,7.90
2023-02-25T16:08:00.410Z,7.90
2023-02-25T16:10:34.611Z,7.90
2023-02-25T16:13:03.805Z,7.80
2023-02-25T16:15:37.104Z,7.80
2023-02-25T16:18:15.264Z,7.80
2023-02-25T16:20:48.291Z,7.80
2023-02-25T16:23:17.740Z,7.80
2023-02-25T16:26:01.703Z,7.70
2023-02-25T16:28:40.776Z,7.70
2023-02-25T16:31:18.447Z,7.70
2023-02-25T16:33:52.558Z,7.60
2023-02-25T16:36:32.005Z,7.60
2023-02-25T16:39:03.403Z,7.60
2023-02-25T16:41:38.040Z,7.60
2023-02-25T16:44:08.000Z,7.60
2023-02-25T16:46:39.466Z,7.60
2023-02-25T16:49:12.238Z,7.60
2023-02-25T16:51:44.389Z,7.50
2023-02-25T16:54:18.711Z,7.50
2023-02-25T16:56:50.300Z,7.50
2023-02-25T16:59:21.692Z,7.50
2023-02-25T17:01:56.939Z,7.50
2023-02-25T17:04:28.033Z,7.50
2023-02-25T17:07:14.074Z,7.50
2023-02-25T17:09:47.886Z,7.50
2023-02-25T17:12:31.484Z,7.50
2023-02-25T17:15:03.021Z,7.40
2023-02-25T17:17:34.184Z,7.40
2023-02-25T17:20:06.054Z,7.40
2023-02-25T17:22:38.046Z,7.40
2023-02-25T17:25:11.939Z,7.30
2023-02-25T17:27:42.100Z,7.30
2023-02-25T17:30:41.881Z,7.30
2023-02-25T17:33:23.595Z,7.20
2023-02-25T17:35:55.500Z,7.10
2023-02-25T17:38:29.027Z,7.10
2023-02-25T17:40:59.358Z,7.10
2023-02-25T17:43:35.351Z,7.10
2023-02-25T17:46:15.625Z,7.00
2023-02-25T17:48:51.073Z,7.00
2023-02-25T17:51:19.899Z,6.90
2023-02-25T17:53:51.452Z,6.90
2023-02-25T17:56:24.732Z,6.80
2023-02-25T17:58:54.137Z,6.80
2023-02-25T18:01:25.827Z,6.80
2023-02-25T18:03:54.944Z,6.70
2023-02-25T18:06:38.510Z,6.70
2023-02-25T18:09:29.357Z,6.60
2023-02-25T18:11:59.161Z,6.60
2023-02-25T18:14:32.766Z,6.50
2023-02-25T18:17:01.831Z,6.50
2023-02-25T18:19:38.948Z,6.50
2023-02-25T18:22:09.955Z,6.40
2023-02-25T18:24:39.688Z,6.40
2023-02-25T18:27:21.781Z,6.40
2023-02-25T18:29:49.687Z,6.30
2023-02-25T18:32:17.898Z,6.30
2023-02-25T18:34:46.131Z,6.30
2023-02-25T18:37:17.417Z,6.30
2023-02-25T18:39:48.479Z,6.20
2023-02-25T18:42:18.266Z,6.20
2023-02-25T18:44:47.719Z,6.20
2023-02-25T18:47:16.784Z,6.20
2023-02-25T18:49:46.000Z,6.20
2023-02-25T18:52:21.984Z,6.10
2023-02-25T18:54:51.623Z,6.10
2023-02-25T18:57:23.399Z,6.10
2023-02-25T18:59:51.765Z,6.10
2023-02-25T19:02:28.910Z,6.10
2023-02-25T19:04:57.452Z,6.10
2023-02-25T19:07:27.282Z,6.00
2023-02-25T19:09:59.320Z,6.00
2023-02-25T19:12:29.546Z,6.00
2023-02-25T19:15:00.699Z,5.90
2023-02-25T19:17:29.635Z,5.90
2023-02-25T19:19:58.172Z,5.90
2023-02-25T19:22:27.185Z,5.90
2023-02-25T19:24:57.461Z,5.80
2023-02-25T19:27:27.633Z,5.80
2023-02-25T19:29:57.921Z,5.80
2023-02-25T19:32:27.405Z,5.80
2023-02-25T19:34:55.576Z,5.80
2023-02-25T19:37:23.958Z,5.70
2023-02-25T19:39:52.141Z,5.70
2023-02-25T19:42:23.128Z,5.60
2023-02-25T19:44:51.318Z,5.70
2023-02-25T19:47:19.526Z,5.80
2023-02-25T19:49:47.696Z,6.10
2023-02-25T19:52:16.162Z,6.50
2023-02-25T19:54:44.316Z,6.80
2023-02-25T19:57:12.622Z,7.00
2023-02-25T19:59:44.667Z,7.10
2023-02-25T20:02:14.211Z,7.10
2023-02-25T20:04:43.054Z,7.00
2023-02-25T20:07:11.391Z,6.90
2023-02-25T20:09:39.822Z,6.80
2023-02-25T20:12:08.611Z,6.70
2023-02-25T20:14:37.190Z,6.60
2023-02-25T20:17:06.786Z,6.40
2023-02-25T20:19:34.989Z,6.30
2023-02-25T20:22:05.642Z,6.20
2023-02-25T20:24:34.705Z,6.10
2023-02-25T20:27:03.264Z,6.00
2023-02-25T20:29:31.590Z,5.90
2023-02-25T20:32:00.088Z,5.80
2023-02-25T20:34:32.412Z,5.70
2023-02-25T20:37:06.589Z,5.60
2023-02-25T20:39:51.269Z,5.60
2023-02-25T20:42:22.119Z,5.50
2023-02-25T20:44:51.988Z,5.50
2023-02-25T20:47:21.717Z,5.50
2023-02-25T20:49:52.105Z,5.40
2023-02-25T20:52:21.056Z,5.40
2023-02-25T20:54:50.001Z,5.40
2023-02-25T20:57:20.660Z,5.30
2023-02-25T20:59:49.713Z,5.30
2023-02-25T21:02:18.809Z,5.30
2023-02-25T21:04:47.359Z,5.30
2023-02-25T21:07:16.948Z,5.30
2023-02-25T21:09:45.115Z,5.20
2023-02-25T21:12:13.468Z,5.20
2023-02-25T21:14:41.665Z,5.20
2023-02-25T21:17:13.640Z,5.20
2023-02-25T21:19:42.184Z,5.20
2023-02-25T21:22:10.439Z,5.20
2023-02-25T21:24:39.976Z,5.10
2023-02-25T21:27:08.367Z,5.10
2023-02-25T21:29:36.544Z,5.00
2023-02-25T21:32:04.735Z,5.00
2023-02-25T21:34:33.034Z,4.90
2023-02-25T21:37:01.188Z,4.90
2023-02-25T21:39:29.424Z,4.90
2023-02-25T21:41:58.993Z,4.80
2023-02-25T21:44:27.408Z,4.80
2023-02-25T21:46:55.567Z,4.80
2023-02-25T21:49:23.841Z,4.80
2023-02-25T21:51:52.006Z,4.80
2023-02-25T21:54:20.234Z,4.70
2023-02-25T21:56:48.405Z,4.70
2023-02-25T21:59:18.027Z,4.70
2023-02-25T22:01:46.397Z,4.70
2023-02-25T22:04:14.786Z,4.70
2023-02-25T22:06:45.058Z,4.70
2023-02-25T22:09:13.211Z,4.70
2023-02-25T22:11:41.396Z,4.70
2023-02-25T22:14:10.841Z,4.70
2023-02-25T22:16:41.104Z,4.70
2023-02-25T22:19:09.319Z,4.70
2023-02-25T22:21:37.897Z,4.70
2023-02-25T22:24:07.343Z,4.70
2023-02-25T22:26:37.399Z,4.70
2023-02-25T22:29:07.393Z,4.70
2023-02-25T22:31:36.019Z,4.70
2023-02-25T22:34:06.403Z,4.70
2023-02-25T22:36:34.633Z,4.70
2023-02-25T22:39:06.114Z,4.70
2023-02-25T22:41:34.448Z,4.70
2023-02-25T22:44:02.748Z,4.70
2023-02-25T22:46:32.394Z,4.70
2023-02-25T22:49:01.182Z,4.70
2023-02-25T22:51:32.697Z,4.70
2023-02-25T22:54:01.397Z,4.70
2023-02-25T22:56:29.872Z,4.70
2023-02-25T22:58:58.125Z,4.60
2023-02-25T23:01:27.331Z,4.60
2023-02-25T23:03:56.953Z,4.60
2023-02-25T23:06:42.394Z,4.50
2023-02-25T23:09:13.519Z,4.60
2023-02-25T23:11:43.097Z,4.50
2023-02-25T23:14:11.602Z,4.50
2023-02-25T23:16:41.616Z,4.50
2023-02-25T23:19:11.488Z,4.50
2023-02-25T23:21:39.760Z,4.50
2023-02-25T23:24:09.678Z,4.40
2023-02-25T23:26:41.775Z,4.40
2023-02-25T23:29:11.764Z,4.40
2023-02-25T23:31:43.349Z,4.40
2023-02-25T23:34:14.131Z,4.30
2023-02-25T23:36:44.262Z,4.30
2023-02-25T23:39:14.069Z,4.30
2023-02-25T23:41:44.237Z,4.30
2023-02-25T23:44:13.913Z,4.30
2023-02-25T23:46:45.105Z,4.40
2023-02-25T23:49:15.756Z,4.40
2023-02-25T23:51:45.753Z,4.40
2023-02-25T23:54:16.016Z,4.50
2023-02-25T23:56:45.655Z,4.50
2023-02-25T23:59:14.348Z,4.60
